createdAt,value
2022-11-05T00:00:19.590Z,12.20
2022-11-05T00:03:21.484Z,12.30
2022-11-05T00:06:23.522Z,12.30
2022-11-05T00:09:25.532Z,12.20
2022-11-05T00:12:27.373Z,12.30
2022-11-05T00:15:29.151Z,12.40
2022-11-05T00:18:31.224Z,12.40
2022-11-05T00:21:37.789Z,12.30
2022-11-05T00:24:39.694Z,12.30
2022-11-05T00:27:41.690Z,12.30
2022-11-05T00:30:43.720Z,12.30
2022-11-05T00:33:45.802Z,12.30
2022-11-05T00:36:48.185Z,12.30
2022-11-05T00:39:50.097Z,12.40
2022-11-05T00:42:52.122Z,12.30
2022-11-05T00:45:54.020Z,12.20
2022-11-05T00:48:56.189Z,12.20
2022-11-05T00:51:58.069Z,12.10
2022-11-05T00:55:04.001Z,12.20
2022-11-05T00:58:11.497Z,12.30
2022-11-05T01:01:16.000Z,12.30
2022-11-05T01:04:17.971Z,12.30
2022-11-05T01:07:19.951Z,12.30
2022-11-05T01:10:21.857Z,12.30
2022-11-05T01:13:27.073Z,12.40
2022-11-05T01:16:29.945Z,12.40
2022-11-05T01:19:31.850Z,12.40
2022-11-05T01:22:33.966Z,12.40
2022-11-05T01:25:36.108Z,12.40
2022-11-05T01:28:37.981Z,12.40
2022-11-05T01:31:39.890Z,12.30
2022-11-05T01:34:41.889Z,12.30
2022-11-05T01:37:43.765Z,12.40
2022-11-05T01:40:46.188Z,12.30
2022-11-05T01:43:53.457Z,12.30
2022-11-05T01:46:56.355Z,12.30
2022-11-05T01:50:01.680Z,12.30
2022-11-05T01:53:26.673Z,12.30
2022-11-05T01:56:51.511Z,12.30
2022-11-05T01:59:58.566Z,12.30
2022-11-05T02:03:01.455Z,12.30
2022-11-05T02:06:04.420Z,12.30
2022-11-05T02:09:15.927Z,12.30
2022-11-05T02:12:20.192Z,12.30
2022-11-05T02:15:39.985Z,12.30
2022-11-05T02:19:00.288Z,12.30
2022-11-05T02:22:23.568Z,12.30
2022-11-05T02:26:02.867Z,12.30
2022-11-05T02:29:41.486Z,12.30
2022-11-05T02:33:00.169Z,12.20
2022-11-05T02:36:23.404Z,12.30
2022-11-05T02:39:54.646Z,12.30
2022-11-05T02:43:05.906Z,12.20
2022-11-05T02:46:33.926Z,12.30
2022-11-05T02:49:53.067Z,12.20
2022-11-05T02:53:05.101Z,12.20
2022-11-05T02:56:17.828Z,12.20
2022-11-05T02:59:20.750Z,12.20
2022-11-05T03:02:22.696Z,12.20
2022-11-05T03:05:36.794Z,12.20
2022-11-05T03:09:16.317Z,12.20
2022-11-05T03:12:21.400Z,12.20
2022-11-05T03:15:50.817Z,12.20
2022-11-05T03:19:19.835Z,12.20
2022-11-05T03:22:41.552Z,12.10
2022-11-05T03:25:49.021Z,12.20
2022-11-05T03:29:04.162Z,12.10
2022-11-05T03:32:11.049Z,12.10
2022-11-05T03:35:30.654Z,12.20
2022-11-05T03:38:35.796Z,12.20
2022-11-05T03:41:40.943Z,12.20
2022-11-05T03:44:47.991Z,12.20
2022-11-05T03:47:54.547Z,12.20
2022-11-05T03:51:16.373Z,12.20
2022-11-05T03:54:18.297Z,12.10
2022-11-05T03:57:29.859Z,12.20
2022-11-05T04:00:32.230Z,12.10
2022-11-05T04:03:35.966Z,12.10
2022-11-05T04:06:38.162Z,12.10
2022-11-05T04:09:40.162Z,12.10
2022-11-05T04:12:42.495Z,12.00
2022-11-05T04:15:44.687Z,12.10
2022-11-05T04:18:46.593Z,12.10
2022-11-05T04:21:48.729Z,12.10
2022-11-05T04:24:50.604Z,12.10
2022-11-05T04:27:52.702Z,12.10
2022-11-05T04:30:54.497Z,12.10
2022-11-05T04:33:57.220Z,12.20
2022-11-05T04:36:59.142Z,12.10
2022-11-05T04:40:01.342Z,12.20
2022-11-05T04:43:03.714Z,12.20
2022-11-05T04:46:06.144Z,12.10
2022-11-05T04:49:08.259Z,12.10
2022-11-05T04:52:11.286Z,12.10
2022-11-05T04:55:16.385Z,12.00
2022-11-05T04:58:18.782Z,12.00
2022-11-05T05:01:23.083Z,11.90
2022-11-05T05:04:25.872Z,11.90
2022-11-05T05:07:28.231Z,11.90
2022-11-05T05:10:30.832Z,11.90
2022-11-05T05:13:33.122Z,11.90
2022-11-05T05:16:38.151Z,11.80
2022-11-05T05:19:40.814Z,11.90
2022-11-05T05:22:42.943Z,11.80
2022-11-05T05:25:45.122Z,11.80
2022-11-05T05:28:47.034Z,11.70
2022-11-05T05:31:48.963Z,11.70
2022-11-05T05:34:51.795Z,11.70
2022-11-05T05:37:56.884Z,11.80
2022-11-05T05:41:00.589Z,11.80
2022-11-05T05:44:05.666Z,11.70
2022-11-05T05:47:07.557Z,11.70
2022-11-05T05:50:09.530Z,11.70
2022-11-05T05:53:11.727Z,11.60
2022-11-05T05:56:14.004Z,11.60
2022-11-05T05:59:15.907Z,11.60
2022-11-05T06:02:18.138Z,11.60
2022-11-05T06:05:20.120Z,11.60
2022-11-05T06:08:21.995Z,11.60
2022-11-05T06:11:24.899Z,11.60
2022-11-05T06:14:26.869Z,11.60
2022-11-05T06:21:20.999Z,11.50
2022-11-05T06:24:23.151Z,11.60
2022-11-05T06:27:25.315Z,11.60
2022-11-05T06:33:43.632Z,11.70
2022-11-05T06:36:45.532Z,11.70
2022-11-05T06:39:47.511Z,11.60
2022-11-05T06:42:52.843Z,11.60
2022-11-05T06:45:55.921Z,11.60
2022-11-05T06:48:58.293Z,11.50
2022-11-05T06:52:00.468Z,11.60
2022-11-05T06:55:02.607Z,11.60
2022-11-05T06:58:04.676Z,11.60
2022-11-05T07:01:09.373Z,11.60
2022-11-05T07:07:22.461Z,11.50
2022-11-05T07:10:24.541Z,11.60
2022-11-05T07:13:29.555Z,11.60
2022-11-05T07:16:31.591Z,11.60
2022-11-05T07:19:34.056Z,11.70
2022-11-05T07:22:36.954Z,11.60
2022-11-05T07:25:39.297Z,11.50
2022-11-05T07:28:41.630Z,11.60
2022-11-05T07:31:43.634Z,11.60
2022-11-05T07:34:45.656Z,11.60
2022-11-05T07:37:49.758Z,11.70
2022-11-05T07:47:15.456Z,11.70
2022-11-05T07:50:19.209Z,11.80
2022-11-05T07:53:25.064Z,11.80
2022-11-05T07:56:27.004Z,11.80
2022-11-05T07:59:28.915Z,11.70
2022-11-05T08:02:33.191Z,11.80
2022-11-05T08:05:43.726Z,11.90
2022-11-05T08:08:45.659Z,11.90
2022-11-05T08:11:47.542Z,12.00
2022-11-05T08:14:49.523Z,12.00
2022-11-05T08:18:06.680Z,12.00
2022-11-05T08:21:08.805Z,12.10
2022-11-05T08:24:10.928Z,12.20
2022-11-05T08:27:12.928Z,12.20
2022-11-05T08:30:14.934Z,12.20
2022-11-05T08:33:17.618Z,12.30
2022-11-05T08:36:19.555Z,12.30
2022-11-05T08:39:21.613Z,12.40
2022-11-05T08:42:23.730Z,12.40
2022-11-05T08:45:27.542Z,12.40
2022-11-05T08:52:09.818Z,12.40
2022-11-05T08:55:11.715Z,12.30
2022-11-05T08:58:15.863Z,12.40
2022-11-05T09:01:17.851Z,12.40
2022-11-05T09:04:19.869Z,12.40
2022-11-05T09:07:21.770Z,12.40
2022-11-05T09:10:23.881Z,12.50
2022-11-05T09:13:26.370Z,12.60
2022-11-05T09:16:28.626Z,12.70
2022-11-05T09:19:30.605Z,12.70
2022-11-05T09:22:32.640Z,12.80
2022-11-05T09:25:37.523Z,12.90
2022-11-05T09:28:40.180Z,13.10
2022-11-05T09:31:42.558Z,13.20
2022-11-05T09:34:44.581Z,13.20
2022-11-05T09:37:46.525Z,13.30
2022-11-05T09:41:08.420Z,13.30
2022-11-05T09:44:18.764Z,13.30
2022-11-05T09:47:35.704Z,13.30
2022-11-05T09:50:42.823Z,13.40
2022-11-05T09:53:45.982Z,13.60
2022-11-05T09:56:47.913Z,14.00
2022-11-05T10:03:13.787Z,14.70
2022-11-05T10:06:25.117Z,15.10
2022-11-05T10:09:32.634Z,15.80
2022-11-05T10:12:41.009Z,15.50
2022-11-05T10:15:53.206Z,15.20
2022-11-05T10:19:17.108Z,15.00
2022-11-05T10:22:19.946Z,14.60
2022-11-05T10:25:24.728Z,14.50
2022-11-05T10:28:31.262Z,14.40
2022-11-05T10:31:37.132Z,14.30
2022-11-05T10:38:13.921Z,14.60
2022-11-05T10:41:46.975Z,14.80
2022-11-05T10:45:06.523Z,14.80
2022-11-05T10:48:26.217Z,14.70
2022-11-05T10:51:28.727Z,15.10
2022-11-05T10:54:34.546Z,15.00
2022-11-05T10:57:39.688Z,14.90
2022-11-05T11:00:52.414Z,14.90
2022-11-05T11:04:08.325Z,14.50
2022-11-05T11:07:22.215Z,15.00
2022-11-05T11:10:25.779Z,15.10
2022-11-05T11:13:49.612Z,14.80
2022-11-05T11:16:51.827Z,14.70
2022-11-05T11:20:16.227Z,14.70
2022-11-05T11:23:18.475Z,14.30
2022-11-05T11:26:21.124Z,14.10
2022-11-05T11:29:26.652Z,14.00
2022-11-05T11:32:37.720Z,14.00
2022-11-05T11:35:46.406Z,13.90
2022-11-05T11:38:48.305Z,14.00
2022-11-05T11:41:53.615Z,13.90
2022-11-05T11:44:57.632Z,14.00
2022-11-05T11:48:09.518Z,13.90
2022-11-05T12:03:33.461Z,13.90
2022-11-05T12:06:50.500Z,13.60
2022-11-05T12:10:00.909Z,13.60
2022-11-05T12:13:33.096Z,13.70
2022-11-05T12:17:14.778Z,13.80
2022-11-05T12:20:34.464Z,13.90
2022-11-05T12:24:15.062Z,14.20
2022-11-05T12:27:41.499Z,14.50
2022-11-05T12:31:16.264Z,14.90
2022-11-05T12:34:56.980Z,14.70
2022-11-05T12:38:36.756Z,14.60
2022-11-05T12:42:03.680Z,14.50
2022-11-05T12:45:21.704Z,14.30
2022-11-05T12:48:44.636Z,14.30
2022-11-05T12:52:23.090Z,14.30
2022-11-05T12:58:41.425Z,14.40
2022-11-05T13:01:49.154Z,14.40
2022-11-05T13:04:59.728Z,14.40
2022-11-05T13:08:42.639Z,14.20
2022-11-05T13:11:48.391Z,14.10
2022-11-05T13:15:14.261Z,14.00
2022-11-05T13:18:23.690Z,14.10
2022-11-05T13:21:28.500Z,14.00
2022-11-05T13:24:39.797Z,14.10
2022-11-05T13:27:46.438Z,14.20
2022-11-05T13:30:54.626Z,14.10
2022-11-05T13:34:04.723Z,14.10
2022-11-05T13:37:08.553Z,14.10
2022-11-05T13:40:13.867Z,14.10
2022-11-05T13:43:33.958Z,14.20
2022-11-05T13:46:56.906Z,14.00
2022-11-05T13:49:58.721Z,14.00
2022-11-05T13:53:09.601Z,14.00
2022-11-05T13:56:36.142Z,13.80
2022-11-05T14:00:19.445Z,13.90
2022-11-05T14:03:22.121Z,13.80
2022-11-05T14:06:36.420Z,13.90
2022-11-05T14:09:40.292Z,13.80
2022-11-05T14:12:48.235Z,13.80
2022-11-05T14:16:09.329Z,13.80
2022-11-05T14:19:20.872Z,13.70
2022-11-05T14:22:31.909Z,13.60
2022-11-05T14:25:36.679Z,13.70
2022-11-05T14:29:14.790Z,13.60
2022-11-05T14:32:22.753Z,13.60
2022-11-05T14:35:38.018Z,13.50
2022-11-05T14:38:50.666Z,13.50
2022-11-05T14:42:03.771Z,13.40
2022-11-05T14:45:21.598Z,13.50
2022-11-05T14:48:37.429Z,13.40
2022-11-05T14:51:44.744Z,13.30
2022-11-05T14:54:51.239Z,13.30
2022-11-05T14:57:53.049Z,13.20
2022-11-05T15:01:03.883Z,13.10
2022-11-05T15:04:26.169Z,13.10
2022-11-05T15:07:37.487Z,13.10
2022-11-05T15:10:40.651Z,13.10
2022-11-05T15:14:09.493Z,13.00
2022-11-05T15:17:22.675Z,13.00
2022-11-05T15:20:48.415Z,12.90
2022-11-05T15:23:55.224Z,12.90
2022-11-05T15:27:23.991Z,12.70
2022-11-05T15:30:26.706Z,12.80
2022-11-05T15:33:29.189Z,12.70
2022-11-05T15:36:32.092Z,12.50
2022-11-05T15:39:39.340Z,12.60
2022-11-05T15:42:41.355Z,12.50
2022-11-05T15:45:51.374Z,12.40
2022-11-05T15:48:57.686Z,12.40
2022-11-05T15:52:00.072Z,12.40
2022-11-05T15:55:12.800Z,12.40
2022-11-05T15:58:14.765Z,12.30
2022-11-05T16:01:23.346Z,12.40
2022-11-05T16:04:29.950Z,12.30
2022-11-05T16:07:31.918Z,12.30
2022-11-05T16:10:38.139Z,12.20
2022-11-05T16:13:41.837Z,12.20
2022-11-05T16:16:44.936Z,12.20
2022-11-05T16:19:47.527Z,11.90
2022-11-05T16:22:52.025Z,12.00
2022-11-05T16:25:57.427Z,11.90
2022-11-05T16:29:10.144Z,11.90
2022-11-05T16:32:31.713Z,11.80
2022-11-05T16:35:33.956Z,11.40
2022-11-05T16:38:35.873Z,11.20
2022-11-05T16:41:42.943Z,11.20
2022-11-05T16:44:44.884Z,11.20
2022-11-05T16:47:47.513Z,11.10
2022-11-05T16:50:49.546Z,11.00
2022-11-05T16:53:51.523Z,10.90
2022-11-05T16:56:53.829Z,10.90
2022-11-05T16:59:56.689Z,10.90
2022-11-05T17:02:58.723Z,10.70
2022-11-05T17:06:00.726Z,10.70
2022-11-05T17:09:02.653Z,10.60
2022-11-05T17:12:04.803Z,10.80
2022-11-05T17:15:17.078Z,10.80
2022-11-05T17:18:20.522Z,10.70
2022-11-05T17:21:22.880Z,10.70
2022-11-05T17:24:25.005Z,10.60
2022-11-05T17:27:26.934Z,10.70
2022-11-05T17:30:29.493Z,10.60
2022-11-05T17:33:31.980Z,10.80
2022-11-05T17:36:40.091Z,10.90
2022-11-05T17:39:42.012Z,10.90
2022-11-05T17:45:52.328Z,10.90
2022-11-05T17:48:54.239Z,11.10
2022-11-05T17:51:56.217Z,11.00
2022-11-05T17:54:58.123Z,10.70
2022-11-05T17:58:00.031Z,10.60
2022-11-05T18:01:02.394Z,10.50
2022-11-05T18:04:08.960Z,10.30
2022-11-05T18:07:11.192Z,10.60
2022-11-05T18:10:15.888Z,10.60
2022-11-05T18:13:17.756Z,10.50
2022-11-05T18:16:26.342Z,10.70
2022-11-05T18:19:28.382Z,10.70
2022-11-05T18:22:30.561Z,10.80
2022-11-05T18:25:32.558Z,10.90
2022-11-05T18:28:34.579Z,10.80
2022-11-05T18:31:36.449Z,10.70
2022-11-05T18:34:38.418Z,10.20
2022-11-05T18:37:40.590Z,10.30
2022-11-05T18:40:42.488Z,10.40
2022-11-05T18:43:44.965Z,10.20
2022-11-05T18:47:02.149Z,10.20
2022-11-05T18:50:05.967Z,10.30
2022-11-05T18:53:07.918Z,10.30
2022-11-05T18:56:11.996Z,10.20
2022-11-05T18:59:36.314Z,10.10
2022-11-05T19:02:40.124Z,10.20
2022-11-05T19:05:42.122Z,10.20
2022-11-05T19:08:44.520Z,10.20
2022-11-05T19:11:46.485Z,10.10
2022-11-05T19:14:48.359Z,10.10
2022-11-05T19:17:50.182Z,9.90
2022-11-05T19:20:52.087Z,9.80
2022-11-05T19:23:54.268Z,9.80
2022-11-05T19:26:56.564Z,9.90
2022-11-05T19:29:58.411Z,9.80
2022-11-05T19:33:00.402Z,9.80
2022-11-05T19:36:05.581Z,9.90
2022-11-05T19:39:09.380Z,10.10
2022-11-05T19:42:11.274Z,10.10
2022-11-05T19:48:35.864Z,10.20
2022-11-05T19:51:37.865Z,10.20
2022-11-05T19:54:42.274Z,10.20
2022-11-05T19:57:44.104Z,9.90
2022-11-05T20:00:46.005Z,9.80
2022-11-05T20:03:48.537Z,9.70
2022-11-05T20:06:50.491Z,9.30
2022-11-05T20:09:52.406Z,9.20
2022-11-05T20:12:54.317Z,9.10
2022-11-05T20:15:56.223Z,9.00
2022-11-05T20:18:58.258Z,8.70
2022-11-05T20:22:00.425Z,8.60
2022-11-05T20:25:02.411Z,8.80
2022-11-05T20:28:05.144Z,8.90
2022-11-05T20:31:08.056Z,9.10
2022-11-05T20:34:09.985Z,9.10
2022-11-05T20:37:11.883Z,9.20
2022-11-05T20:40:16.248Z,9.20
2022-11-05T20:43:18.107Z,9.10
2022-11-05T20:46:21.973Z,9.00
2022-11-05T20:49:25.674Z,8.90
2022-11-05T20:52:28.262Z,9.10
2022-11-05T20:55:30.203Z,8.90
2022-11-05T20:58:32.575Z,8.90
2022-11-05T21:01:35.224Z,8.90
2022-11-05T21:04:37.331Z,8.90
2022-11-05T21:07:39.198Z,8.70
2022-11-05T21:10:43.105Z,8.70
2022-11-05T21:13:47.732Z,8.70
2022-11-05T21:16:49.753Z,8.40
2022-11-05T21:19:51.546Z,8.50
2022-11-05T21:22:53.464Z,8.50
2022-11-05T21:25:55.613Z,8.60
2022-11-05T21:28:57.524Z,8.50
2022-11-05T21:31:59.399Z,8.50
2022-11-05T21:35:01.661Z,8.50
2022-11-05T21:38:03.598Z,8.40
2022-11-05T21:41:06.111Z,8.40
2022-11-05T21:44:08.123Z,8.50
2022-11-05T21:47:13.900Z,8.30
2022-11-05T21:50:20.851Z,8.30
2022-11-05T21:53:23.995Z,8.10
2022-11-05T21:56:27.246Z,7.90
2022-11-05T21:59:29.746Z,7.90
2022-11-05T22:02:31.996Z,7.80
2022-11-05T22:05:34.265Z,7.90
2022-11-05T22:08:39.468Z,8.10
2022-11-05T22:11:41.364Z,8.00
2022-11-05T22:14:43.415Z,8.20
2022-11-05T22:17:49.660Z,8.30
2022-11-05T22:20:51.573Z,8.40
2022-11-05T22:23:54.029Z,8.40
2022-11-05T22:26:56.105Z,8.40
2022-11-05T22:29:57.988Z,8.40
2022-11-05T22:33:00.316Z,8.50
2022-11-05T22:36:04.231Z,8.40
2022-11-05T22:39:06.975Z,8.50
2022-11-05T22:42:09.063Z,8.50
2022-11-05T22:45:13.594Z,8.50
2022-11-05T22:48:15.868Z,8.40
2022-11-05T22:51:31.696Z,8.30
2022-11-05T22:54:38.880Z,8.00
2022-11-05T22:57:41.287Z,8.20
2022-11-05T23:00:43.324Z,8.30
2022-11-05T23:03:46.923Z,8.30
2022-11-05T23:06:48.755Z,8.20
2022-11-05T23:09:50.758Z,8.30
2022-11-05T23:12:55.133Z,8.30
2022-11-05T23:15:56.981Z,8.30
2022-11-05T23:19:01.087Z,8.30
2022-11-05T23:22:03.179Z,7.70
2022-11-05T23:25:06.816Z,8.00
2022-11-05T23:28:10.415Z,7.90
2022-11-05T23:31:12.858Z,7.90
2022-11-05T23:34:14.779Z,7.80
2022-11-05T23:37:16.706Z,7.90
2022-11-05T23:40:26.315Z,7.70
2022-11-05T23:43:28.272Z,7.70
2022-11-05T23:46:30.152Z,7.70
2022-11-05T23:49:32.257Z,7.80
2022-11-05T23:52:34.164Z,7.80
2022-11-05T23:55:36.645Z,7.60
2022-11-05T23:58:39.457Z,7.60
